Rafael Lopez

Chefscout - Santa Fe
2 Sep 2027
Donnerstag
Verarbeitung

Persönlichkeit

Anpassungsfähigkeit (9) Ehrgeiz (7) Kontroverse (1) Loyalität (17) Druck (10) Professionalität (11) Fairness (4) Temperament (5)

Profil

Trainerstil Demokratisch
Lizenz Nationale B
Entschlossenheit 10
Menschenführung 4
Motivation 4
Disziplin 11
Arbeitszufriedenheit
100%
Ermüdung
0%
Rolle Chefscout
Gehalt 94.1K p/W
Vertrag 14.03.2028

Leistung

Verhalten Gut
Trainingseffektivität
46%
Spielerentwicklung
55%
Verletzungsprävention
30%
Taktische Umsetzung
45%

Letzte Ereignisse

Nahm an einer Scouting-Besprechung teil jetzt
Nahm an einer Scouting-Besprechung teil jetzt
Empfahl ein Transferziel jetzt
Empfahl ein Transferziel jetzt
Empfahl ein Transferziel jetzt
Empfahl ein Transferziel 7T her
Nahm an einer Scouting-Besprechung teil 7T her
Nahm an einer Scouting-Besprechung teil 7T her

Aktuell beobachtet

206
Spieler Verein Status Fähigkeit Vertrauen Beobachtet Zuletzt beobachtet Letzte Stimme
José Luis Caicedo Barranquilla Aktiv 139 / 124 48% 1 28.06.2027 -
Samuel Lucero Defensa y Justicia Verhandlung 114 / 110 40% 1 14.06.2027 Mehr Infos nötig
Jofre Torrents Ajax Aktiv 138 / 143 40% 3 07.06.2027 -
Mfundo Vilakazi Kaizer Chiefs Aktiv 114 / 111 40% 6 07.06.2027 -
David Valencia Alianza Petrolera Aktiv 114 / 145 40% 1 04.06.2027 -
Andrés Amaya Fortaleza CEIF Aktiv 116 / 107 48% 1 01.06.2027 -
Christos Mouzakitis Hull City Aktiv 130 / 121 40% 9 30.05.2027 -
Ernie Weaver AFC Wimbledon Aktiv 90 / 119 40% 5 29.05.2027 Beobachten
Freddy Murillo Valencia Aktiv 108 / 101 40% 2 29.05.2027 -
Gilberto Mora Atlético Madrid Aktiv 119 / 157 40% 1 29.05.2027 -
Daniel Vernattus Metalist Aktiv 75 / 94 40% 2 28.05.2027 -
Jesús Rodríguez Como Aktiv 129 / 134 40% 2 26.05.2027 -
Amaury Morales Pumas UNAM Aktiv 108 / 110 40% 1 25.05.2027 -
Lander Astiazarán Real Sociedad Aktiv 108 / 101 40% 5 24.05.2027 -
Sascha Britschgi Padova Aktiv 105 / 109 40% 1 22.05.2027 -
Percy Jali Free State Stars Aktiv 96 / 101 40% 3 19.05.2027 -
Jan Bürger Gillingham Aktiv 127 / 111 40% 1 19.05.2027 -
Kamarni Ryan Burton Albion Aktiv 78 / 116 40% 1 18.05.2027 -
Christ Inao Oulaï Fiorentina Aktiv 149 / 146 40% 1 16.05.2027 -
Lynden Edhart Cambuur Aktiv 115 / 124 40% 1 16.05.2027 -
Ibrahim Maza Bayer Leverkusen Aktiv 163 / 155 40% 5 15.05.2027 -
Rayan Bournemouth Aktiv 146 / 154 40% 1 15.05.2027 -
Leandro Martins Benfica Aktiv 84 / 113 40% 1 14.05.2027 -
Joel McGregor Swindon Town Aktiv 85 / 101 40% 2 13.05.2027 -
Juan Giménez Celta Aktiv 102 / 131 40% 1 13.05.2027 -
Josh King Chelsea Aktiv 137 / 132 40% 4 11.05.2027 -
Shea Lacey Wolverhampton Aktiv 117 / 123 40% 4 11.05.2027 -
Samuele di Benedetto Bari Aktiv 111 / 113 40% 1 11.05.2027 -
Davide Bartesaghi AC Milan Aktiv 127 / 129 40% 1 09.05.2027 -
Gonçalo Oliveira Benfica Aktiv 108 / 116 40% 1 08.05.2027 -
Monty Batlhabane Polokwane City Aktiv 107 / 96 40% 2 05.05.2027 -
Jayden Addai Como Aktiv 128 / 118 40% 2 05.05.2027 -
Othmane Maamma Watford Aktiv 143 / 118 40% 3 30.04.2027 -
Ben Gannon Doak Bournemouth Aktiv 158 / 150 40% 1 30.04.2027 -
Riley Owen Trento Aktiv 95 / 114 40% 2 29.04.2027 -
Yussif Saidu Zaragoza Aktiv 105 / 112 40% 6 27.04.2027 -
Matías Gómez Granada Aktiv 123 / 126 40% 3 27.04.2027 -
Leo Castledine Middlesbrough Aktiv 116 / 140 40% 3 26.04.2027 -
Kutlwano Letlhaku Ajax Cape Town Aktiv 107 / 109 40% 2 25.04.2027 -
Cyriaque Irié VfL Wolfsburg Aktiv 130 / 122 40% 2 22.04.2027 -
Rodrigo Mora AS Roma Aktiv 145 / 142 40% 2 20.04.2027 -
David Ozoh Derby County Aktiv 138 / 109 40% 2 15.04.2027 -
André Miranda Porto Aktiv 104 / 86 40% 1 13.04.2027 -
Ronwen Phiri Platinum Stars Aktiv 106 / 117 40% 1 12.04.2027 -
Ethan Williams Peterborough United Aktiv 100 / 110 40% 2 10.04.2027 -
Daniel Awuni Aduana Stars Aktiv 93 / 83 40% 1 06.04.2027 -
Kazunari Kita Real Sociedad Aktiv 83 / 95 40% 1 06.04.2027 -
Adam Bakoune Ospitaletto Aktiv 100 / 117 40% 1 06.04.2027 -
James Dornelly Peterborough United Aktiv 117 / 94 40% 3 05.04.2027 -
Jan Virgili Club Brugge Aktiv 139 / 138 40% 1 02.04.2027 -
Calum Agius Crewe Alexandra Aktiv 88 / 114 40% 1 01.04.2027 -
Hazeem Bakre Crawley Town Aktiv 99 / 85 40% 1 31.03.2027 -
Zack Nelson Bromley Aktiv 119 / 112 40% 1 28.03.2027 -
Rocco Vata Watford Aktiv 105 / 122 40% 1 26.03.2027 -
Araphat Mohammed Berekum Chelsea Aktiv 91 / 111 40% 1 22.03.2027 -
Ruan Alanyaspor Aktiv 140 / 133 40% 1 19.03.2027 -
Oscar Schwartau Norwich City Aktiv 111 / 149 40% 2 17.03.2027 -
Antoni Milambo Brentford Aktiv 151 / 142 40% 1 13.03.2027 -
Mamadou Diakhon Club Brugge Aktiv 99 / 111 40% 1 11.03.2027 -
Jayden Luker Barnet Aktiv 91 / 100 40% 1 07.03.2027 -
Israel Reyes CSKA Moscow Aktiv 139 / 136 40% 2 23.02.2027 -
Nadir Zortea Bologna Aktiv 149 / 142 40% 2 23.02.2027 -
Juanlu Bournemouth Aktiv 137 / 136 40% 2 22.02.2027 -
Zak Swanson Bradford City Aktiv 110 / 104 40% 1 22.02.2027 -
Bosun Lawal Stoke City Aktiv 132 / 127 40% 1 16.02.2027 -
Ronnie Edwards Queens Park Rangers Aktiv 114 / 141 40% 1 16.02.2027 -
Leif Davis Ipswich Town Aktiv 148 / 125 40% 1 15.02.2027 -
Matisse Samoise KAA Gent Aktiv 113 / 140 40% 1 14.02.2027 -
Jacques Ekomié Wrexham Aktiv 120 / 119 40% 2 13.02.2027 -
Josh Tymon Swansea City Aktiv 119 / 129 40% 3 12.02.2027 -
Alessandro Buongiorno Sassuolo Aktiv 141 / 162 40% 1 10.02.2027 -
Christian Krasnodar Aktiv 138 / 129 40% 5 09.02.2027 -
Robert-Jan Vanwesemael Sint-Truiden Aktiv 136 / 102 40% 1 09.02.2027 -
Luke McNally Bristol City Aktiv 116 / 122 40% 1 08.02.2027 -
Jordan Beyer Burnley Aktiv 131 / 145 40% 1 08.02.2027 -
Nicolás Fernández Mercau Shakhtar Aktiv 132 / 131 40% 1 06.02.2027 -
Milan van Ewijk Mansfield Town Aktiv 148 / 139 40% 1 02.02.2027 -
Teden Mengi Luton Town Aktiv 114 / 128 40% 2 01.02.2027 -
Kellen Fisher Norwich City Aktiv 109 / 111 40% 1 31.01.2027 -
Mandla Erasmus SuperSport United Aktiv 129 / 131 40% 1 31.01.2027 -
Lucas Da Cunha Como Aktiv 147 / 130 40% 1 28.01.2027 -
Juan Mosquera Sheffield Wednesday Aktiv 136 / 129 40% 1 25.01.2027 -
Max Bird Birmingham Aktiv 117 / 113 40% 1 24.01.2027 -
Toby Collyer West Bromwich Albion Aktiv 151 / 118 40% 1 20.01.2027 -
Bali Mumba Huddersfield Town Aktiv 106 / 121 40% 2 19.01.2027 -
Di'Shon Bernard Sheffield Wednesday Aktiv 118 / 118 40% 1 18.01.2027 -
Japhet Tanganga Sheffield United Aktiv 127 / 122 40% 1 15.01.2027 -
Francisco Álvarez Argentinos Juniors Aktiv 112 / 121 40% 1 13.01.2027 -
Joaquín García Vélez Aktiv 120 / 132 40% 2 10.01.2027 -
Nobel Mendy Hull City Aktiv 136 / 123 40% 1 09.01.2027 -
Facundo Mansilla Central Córdoba SdE Aktiv 105 / 124 40% 1 06.01.2027 -
Tomás Ribeiro Cultural Leonesa Aktiv 137 / 125 40% 1 06.01.2027 -
Williams Manyama SuperSport United Aktiv 125 / 129 40% 2 04.01.2027 -
Pelle Mattsson Norwich City Aktiv 126 / 104 40% 1 02.01.2027 -
Franco Ibarra Rosario Central Aktiv 120 / 123 40% 2 01.01.2027 -
Nicolas Madsen Queens Park Rangers Aktiv 133 / 110 40% 1 01.01.2027 -
Nazareno Colombo Racing Club Aktiv 139 / 135 40% 1 29.12.2026 Mehr Infos nötig
Victor Parada Spartak Moscow Aktiv 146 / 138 40% 1 29.12.2026 -
Alex Vigo Independiente Rivadavia Aktiv 110 / 119 40% 1 28.12.2026 Mehr Infos nötig
Santiago González Tigre Aktiv 122 / 125 40% 1 22.12.2026 -
Oli McBurnie Hull City Aktiv 119 / 118 40% 2 16.12.2026 -
Nicolò Tresoldi Club Brugge Aktiv 133 / 130 40% 2 15.12.2026 -
Patson Daka Leicester City Aktiv 137 / 119 40% 1 15.12.2026 -
Will Lankshear Middlesbrough Aktiv 134 / 121 40% 1 14.12.2026 -
Enzo Avaro Odd Aktiv 124 / 120 40% 1 03.12.2026 -
Konstantin Tyukavin Inter Verhandlung 132 / 133 66% 1 01.12.2026 Befürworten
Toni Fruk KV Mechelen Verhandlung 132 / 133 66% 1 01.12.2026 Befürworten
Marcel Ruiz RC Lens Verhandlung 140 / 141 66% 1 01.12.2026 Befürworten
Ruben van Bommel Ferencvaros Aktiv 138 / 142 40% 1 30.11.2026 -
Tomás Silva Platense Aktiv 135 / 115 40% 1 28.11.2026 -
Tiago Palacios Estudiantes Aktiv 120 / 129 40% 2 27.11.2026 -
Rubén Duarte Legia Aktiv 145 / 144 40% 1 27.11.2026 -
Gastón Lodico Racing Club Aktiv 120 / 129 40% 2 26.11.2026 -
Joaquín Gho Argentinos Juniors Aktiv 115 / 131 40% 2 26.11.2026 -
Juan Infante Atlético Tucumán Aktiv 123 / 121 40% 4 25.11.2026 -
Alan Lescano Argentinos Juniors Aktiv 124 / 120 40% 3 24.11.2026 -
Franco Zapiola Platense Aktiv 127 / 126 40% 1 24.11.2026 -
Rodrigo Echeverría Leon Aktiv 141 / 120 40% 5 22.11.2026 -
Bryan González Guadalajara Aktiv 137 / 117 40% 1 22.11.2026 -
Jesús Ricardo Angulo Toluca Aktiv 147 / 122 40% 2 21.11.2026 Mehr Infos nötig
Cristian Calderón Pumas UNAM Aktiv 113 / 117 40% 2 20.11.2026 -
Marcelo Estigarribia Unión de Santa Fe Aktiv 121 / 126 40% 3 20.11.2026 -
Jesús Angulo Tigres Aktiv 125 / 152 40% 5 18.11.2026 -
Oussama Idrissi Pachuca Aktiv 155 / 137 40% 9 18.11.2026 Beobachten
Nicolás Sumavil Platense Aktiv 129 / 122 40% 1 18.11.2026 -
Brian Gutiérrez Guadalajara Aktiv 107 / 120 40% 3 16.11.2026 -
Alejandro Zendejas Club America Aktiv 125 / 158 40% 4 13.11.2026 -
Bamba Dieng Crvena Zvezda Aktiv 131 / 108 40% 1 12.11.2026 -
César Ibáñez Huracán Aktiv 132 / 117 40% 1 08.11.2026 -
Agustín Palavecino Cruz Azul Aktiv 142 / 122 40% 6 07.11.2026 -
Orbelín Pineda Monterrey Aktiv 124 / 139 40% 2 05.11.2026 -
Hany Mukhtar Spezia Aktiv 146 / 146 40% 1 05.11.2026 -
Carlos Gruezo Santos Laguna Aktiv 130 / 106 40% 2 03.11.2026 -
Juninho Pumas UNAM Aktiv 135 / 112 40% 3 03.11.2026 -
Gastón Fernández Chacarita Juniors Aktiv 97 / 97 40% 1 03.11.2026 -
Erick Reyes Toluca Aktiv 140 / 155 40% 2 02.11.2026 -
Michael Cooper Sheffield United Aktiv 128 / 112 40% 1 02.11.2026 -
Ramiro Ruiz Rodríguez Atlético Tucumán Aktiv 130 / 109 40% 2 01.11.2026 -
Iker Benito Queretaro Aktiv 105 / 143 40% 2 30.10.2026 -
Fernando Valenzuela Queretaro Aktiv 115 / 117 40% 2 30.10.2026 -
Jamie Cumming Oxford United Aktiv 99 / 109 40% 1 30.10.2026 -
Luís Esteves Atlas Aktiv 138 / 119 40% 1 28.10.2026 -
Marcelino Moreno Lanús Aktiv 129 / 139 40% 2 27.10.2026 -
Francisco González Metilli Belgrano Aktiv 113 / 137 40% 2 24.10.2026 -
Jhonatan Candia Barracas Central Aktiv 135 / 117 40% 2 23.10.2026 -
Matías Cóccaro Newell's Old Boys Aktiv 116 / 114 40% 1 23.10.2026 -
Wessam Abou Ali Columbus Crew Aktiv 123 / 139 40% 1 23.10.2026 -
Rômulo Tigres Aktiv 105 / 115 40% 2 21.10.2026 -
Facundo Cambeses Racing Club Aktiv 136 / 123 40% 2 21.10.2026 -
Agustín Lastra Estudiantes Aktiv 101 / 98 40% 1 21.10.2026 -
Joaquín Bigo Tristán Suárez Aktiv 117 / 95 40% 2 18.10.2026 -
Diego Rossi Monterrey Aktiv 117 / 129 40% 2 14.10.2026 -
Joaquim Tigres Aktiv 118 / 146 40% 1 14.10.2026 -
Santiago Núñez Estudiantes Aktiv 112 / 137 40% 1 14.10.2026 -
Ezequiel Bullaude Santos Laguna Aktiv 109 / 112 40% 1 14.10.2026 -
Lautaro Petruchi Gimnasia y Esgrima Aktiv 128 / 125 40% 1 13.10.2026 -
Agustín Buffa Wanderers Aktiv 110 / 90 40% 1 13.10.2026 -
Jordi Cortizo Leon Aktiv 104 / 144 40% 1 09.10.2026 -
Efraín Álvarez Guadalajara Aktiv 142 / 140 40% 1 07.10.2026 -
Matías Reali San Lorenzo Aktiv 131 / 123 40% 1 06.10.2026 -
Luis Ingolotti Atlético Tucumán Aktiv 111 / 115 40% 1 04.10.2026 -
Mauro Casoli Talleres Aktiv 109 / 103 40% 1 04.10.2026 -
Pedro Vite Pumas UNAM Aktiv 116 / 110 40% 1 04.10.2026 -
Adnan Courtois KV Oostende Aktiv 137 / 123 40% 1 03.10.2026 -
Tomás O'Connor Gimnasia y Esgrima Aktiv 108 / 137 40% 1 03.10.2026 -
Facundo Zabala Independiente Aktiv 129 / 135 40% 1 29.09.2026 -
Richard Martinez Veracruz Aktiv 142 / 132 40% 1 27.09.2026 -
Joaquín Silva Plaza Colonia Aktiv 111 / 102 40% 1 25.09.2026 -
Juan Pablo Domínguez Leon Aktiv 118 / 131 40% 2 23.09.2026 -
Ulises Ortegoza Talleres Aktiv 109 / 110 40% 1 23.09.2026 -
Nicolás Castro Toluca Aktiv 108 / 123 40% 1 22.09.2026 -
Jaminton Campaz Rosario Central Aktiv 111 / 126 40% 1 19.09.2026 -
Omar Carabalí Shonan Bellmare Aktiv 130 / 102 40% 1 19.09.2026 -
Santiago Silva CFR Cluj Aktiv 99 / 138 40% 1 19.09.2026 -
Antony Alonso Deportivo Riestra Aktiv 113 / 120 40% 1 18.09.2026 -
Rafael Navarro St. Louis CITY SC Aktiv 148 / 123 40% 1 18.09.2026 -
Carlos Moreno Pachuca Aktiv 120 / 126 40% 1 16.09.2026 -
Iván Rodríguez Leon Aktiv 145 / 120 40% 1 15.09.2026 -
Manuel Ospina Cortulua Aktiv 132 / 113 40% 1 11.09.2026 Mehr Infos nötig
Kein Sato FC Tokyo Aktiv 117 / 138 40% 1 11.09.2026 -
Richard Ledezma Guadalajara Aktiv 122 / 125 40% 3 09.09.2026 -
Adalberto Carrasquilla Pumas UNAM Aktiv 105 / 129 40% 1 09.09.2026 -
Dayne St. Clair Inter Miami CF Aktiv 107 / 116 40% 1 09.09.2026 -
Kenedy Pachuca Aktiv 133 / 120 40% 1 07.09.2026 -
Tomás Ahumada Audax Italiano Aktiv 106 / 109 40% 1 07.09.2026 -
César Huerta Pumas UNAM Aktiv 120 / 120 40% 1 04.09.2026 -
Renato Solís Sporting Cristal Aktiv 112 / 130 40% 1 03.09.2026 -
Bradley Mabunda SuperSport United Aktiv 96 / 94 40% 1 02.09.2026 -
Nicolás Fonseca Leon Aktiv 102 / 128 40% 2 31.08.2026 -
Matt Freese New York City Aktiv 123 / 128 40% 1 30.08.2026 -
Ángel González Libertad Aktiv 108 / 99 40% 1 29.08.2026 -
Matías Dufour Sportivo Trinidense Aktiv 116 / 96 40% 1 28.08.2026 -
Franco Cristaldo Talleres Aktiv 138 / 129 40% 1 24.08.2026 -
Jeremy Márquez Cruz Azul Aktiv 112 / 140 40% 1 23.08.2026 -
Lautaro Amadé Defensa y Justicia Aktiv 105 / 111 40% 3 22.08.2026 -
Beycker Velásquez Zamora Aktiv 105 / 89 40% 2 21.08.2026 -
Justo Giani Universidad Catolica Aktiv 113 / 110 40% 1 18.08.2026 -
Víctor Guzmán Toluca Aktiv 142 / 115 40% 1 14.08.2026 -
Salvador Reyes Leon Aktiv 100 / 142 40% 1 12.08.2026 -
Enzo Giménez Queretaro Aktiv 144 / 124 40% 1 09.08.2026 -
César Araújo Tigres Aktiv 118 / 110 40% 1 09.08.2026 -
Víctor Dávila Club America Aktiv 104 / 137 40% 1 07.08.2026 -
Ramiro Sordo Santos Laguna Aktiv 124 / 131 40% 1 06.08.2026 -
Matías Fernández Colo-Colo Aktiv 122 / 115 40% 1 06.08.2026 -
Luis Romo Guadalajara Aktiv 115 / 141 40% 1 05.08.2026 -
Federico Viñas Toluca Aktiv 126 / 132 40% 1 01.08.2026 -